Time;durP1;ratioP1;P1;durP2;ratioP2;P2;SDS_P1;SDS_P2;PMS_P1;PMS_P2;Temp;Humidity;BMP_temperature;BMP_pressure;BME280_temperature;BME280_humidity;BME280_pressure;Samples;Min_cycle;Max_cycle;Signal;HPM_P1;HPM_P2
2022/01/14 00:02:08;;;;;;;32.07;14.47;;;;;;;-142.75;100.00;80030.41;5050447;28;20043;-68
2022/01/14 00:04:35;;;;;;;28.90;15.03;;;;;;;-142.75;100.00;80016.59;5050249;28;20451;-68
2022/01/14 00:07:00;;;;;;;29.07;14.03;;;;;;;-142.75;100.00;80014.63;5050620;28;20021;-67
2022/01/14 00:09:26;;;;;;;32.88;15.43;;;;;;;-142.75;100.00;80012.66;5032133;28;20387;-68
2022/01/14 00:11:56;;;;;;;30.13;13.82;;;;;;;-142.75;100.00;80010.69;5050215;28;20386;-67
2022/01/14 00:14:38;;;;;;;41.27;15.27;;;;;;;-142.75;100.00;80012.66;5049820;28;20036;-68
2022/01/14 00:17:11;;;;;;;32.00;13.77;;;;;;;-142.75;100.00;79998.88;5030462;28;20033;-68
2022/01/14 00:19:37;;;;;;;25.70;13.87;;;;;;;-142.75;100.00;79981.16;5030101;28;20036;-67
2022/01/14 00:22:09;;;;;;;27.88;14.00;;;;;;;-142.75;100.00;79981.16;5030961;28;20041;-67
2022/01/14 00:33:09;;;;;;;30.13;14.33;;;;;;;-142.75;100.00;79998.88;5031066;28;20076;-67
2022/01/14 00:35:36;;;;;;;37.80;14.23;;;;;;;-142.75;100.00;80000.84;5030878;28;20028;-68
2022/01/14 00:38:01;;;;;;;32.87;13.63;;;;;;;-142.75;100.00;80012.66;5030592;28;20021;-67
2022/01/14 00:40:27;;;;;;;33.45;15.45;;;;;;;-142.75;100.00;80032.38;5030682;28;20410;-67
2022/01/14 00:42:52;;;;;;;30.98;14.80;;;;;;;-142.75;100.00;80014.63;5030707;28;20028;-68
2022/01/14 00:45:18;;;;;;;31.38;15.43;;;;;;;-142.75;100.00;80010.69;5030789;28;20025;-68
2022/01/14 00:47:44;;;;;;;33.85;14.98;;;;;;;-142.75;100.00;80010.69;5030037;28;20029;-67
2022/01/14 00:50:12;;;;;;;33.42;16.08;;;;;;;-142.75;100.00;80002.81;5012620;28;20056;-67
2022/01/14 00:52:39;;;;;;;30.73;15.50;;;;;;;-142.75;100.00;80000.84;5030690;28;20654;-68
2022/01/14 00:55:07;;;;;;;31.13;15.43;;;;;;;-142.75;100.00;79998.88;5012861;28;20025;-68
2022/01/14 01:00:17;;;;;;;31.37;16.60;;;;;;;-142.75;100.00;80006.75;5030550;28;20418;-67
2022/01/14 01:02:43;;;;;;;29.23;16.47;;;;;;;-142.75;100.00;80014.63;5030505;28;20033;-68
2022/01/14 01:05:08;;;;;;;35.38;17.50;;;;;;;-142.75;100.00;80008.72;5030609;28;20021;-68
2022/01/14 01:07:34;;;;;;;31.63;17.15;;;;;;;-142.75;100.00;80002.81;5030581;28;20022;-68
2022/01/14 01:09:59;;;;;;;33.42;17.27;;;;;;;-142.75;100.00;80000.84;5030213;28;20026;-68
2022/01/14 01:12:35;;;;;;;36.47;19.20;;;;;;;-142.75;100.00;79998.88;5030610;28;20021;-68
2022/01/14 01:15:08;;;;;;;41.17;18.67;;;;;;;-142.75;100.00;80000.84;5030474;28;20079;-68
2022/01/14 01:17:35;;;;;;;32.67;19.03;;;;;;;-142.75;100.00;80008.72;5030438;28;20048;-68
2022/01/14 01:20:01;;;;;;;33.27;18.53;;;;;;;-142.75;100.00;80006.75;5030117;28;20128;-68
2022/01/14 01:22:27;;;;;;;39.92;19.08;;;;;;;-142.75;100.00;80004.78;5030029;28;20038;-68
2022/01/14 01:24:52;;;;;;;37.88;19.27;;;;;;;-142.75;100.00;80008.72;5032244;28;20036;-68
2022/01/14 01:27:20;;;;;;;39.22;18.90;;;;;;;-142.75;100.00;80008.72;5034145;28;20029;-68
2022/01/14 01:29:52;;;;;;;34.10;18.83;;;;;;;-142.75;100.00;79998.88;5034099;28;20033;-67
2022/01/14 01:32:17;;;;;;;50.73;18.13;;;;;;;-142.75;100.00;80016.59;5034962;28;20018;-67
2022/01/14 01:34:43;;;;;;;38.35;19.20;;;;;;;-142.75;100.00;80010.69;5034446;28;20076;-68
2022/01/14 01:37:09;;;;;;;;;;;;;;;-142.75;100.00;80004.78;5034415;28;20491;-68
2022/01/14 01:39:35;;;;;;;39.77;19.80;;;;;;;-142.75;100.00;80000.84;5033605;28;20010;-68
2022/01/14 01:42:07;;;;;;;37.13;18.50;;;;;;;-142.75;100.00;79996.91;5033872;28;20033;-68
2022/01/14 01:44:35;;;;;;;39.43;18.90;;;;;;;-142.75;100.00;80008.72;5033982;28;20040;-68
2022/01/14 01:47:01;;;;;;;50.63;18.73;;;;;;;-142.75;100.00;80014.63;5016100;28;20025;-68
2022/01/14 01:49:33;;;;;;;39.90;19.67;;;;;;;-142.75;100.00;80014.63;5033266;28;20403;-68
2022/01/14 01:51:59;;;;;;;33.80;18.43;;;;;;;-142.75;100.00;80014.63;5033585;28;20028;-68
2022/01/14 01:54:26;;;;;;;;;;;;;;;-142.75;100.00;79992.97;5034186;28;20082;-68
2022/01/14 01:56:51;;;;;;;33.22;18.35;;;;;;;-142.75;100.00;79996.91;5033605;28;19972;-68
2022/01/14 01:59:19;;;;;;;34.80;18.52;;;;;;;-142.75;100.00;79994.94;5015663;28;20076;-68
2022/01/14 02:01:44;;;;;;;34.63;18.47;;;;;;;-142.75;100.00;79994.94;5015362;28;20491;-68
2022/01/14 02:04:09;;;;;;;37.58;18.33;;;;;;;-142.75;100.00;79992.97;5033568;28;20032;-68
2022/01/14 02:06:38;;;;;;;33.80;17.35;;;;;;;-142.75;100.00;79989.03;5032791;28;20388;-68
2022/01/14 02:09:05;;;;;;;39.30;19.90;;;;;;;-142.75;100.00;79985.09;5014569;28;20082;-68
2022/01/14 02:11:30;;;;;;;36.80;18.67;;;;;;;-142.75;100.00;79981.16;5032696;28;20084;-68
2022/01/14 02:13:58;;;;;;;34.80;18.38;;;;;;;-142.75;100.00;79989.03;5032694;28;20380;-69
2022/01/14 02:19:22;;;;;;;33.67;17.37;;;;;;;-142.75;100.00;79983.13;5002252;28;20131;-67
2022/01/14 02:22:09;;;;;;;33.50;16.57;;;;;;;-142.75;100.00;79983.13;5032518;28;20026;-68
2022/01/14 02:27:08;;;;;;;30.87;15.70;;;;;;;-142.75;100.00;79991.00;5033053;28;20491;-68
2022/01/14 02:29:34;;;;;;;30.03;15.40;;;;;;;-142.75;100.00;79996.91;5032862;28;20029;-68
2022/01/14 02:32:01;;;;;;;33.17;15.67;;;;;;;-142.75;100.00;79992.97;5032833;28;20033;-68
2022/01/14 02:34:26;;;;;;;27.03;14.97;;;;;;;-142.75;100.00;79987.06;5033538;28;20030;-68
2022/01/14 02:36:52;;;;;;;37.55;15.80;;;;;;;-142.75;100.00;79983.13;5032257;28;20045;-69
2022/01/14 02:39:19;;;;;;;27.52;15.35;;;;;;;-142.75;100.00;79989.03;5049649;28;20028;-68
2022/01/14 02:41:47;;;;;;;25.83;14.33;;;;;;;-142.75;100.00;80004.78;5034285;28;20032;-68
2022/01/14 02:44:23;;;;;;;39.07;15.27;;;;;;;-142.75;100.00;80004.78;5030929;28;20036;-68
2022/01/14 02:46:55;;;;;;;26.90;14.60;;;;;;;-142.75;100.00;80008.72;5032308;28;20371;-68
2022/01/14 02:49:22;;;;;;;32.03;15.07;;;;;;;-142.75;100.00;80024.50;5013347;28;20108;-68
2022/01/14 02:51:47;;;;;;;26.07;15.40;;;;;;;-142.75;100.00;80020.53;5031897;28;20026;-68
2022/01/14 02:54:16;;;;;;;27.00;13.82;;;;;;;-142.75;100.00;80020.53;5032291;28;20029;-67
2022/01/14 02:56:43;;;;;;;23.67;13.57;;;;;;;-142.75;100.00;80034.34;5031945;28;20029;-68
2022/01/14 02:59:10;;;;;;;24.97;14.50;;;;;;;-142.75;100.00;80038.28;5013875;28;20025;-68
2022/01/14 03:01:36;;;;;;;28.47;14.63;;;;;;;-142.75;100.00;80038.28;5033431;28;20025;-68
2022/01/14 03:04:03;;;;;;;27.07;14.33;;;;;;;-142.75;100.00;80046.16;5052228;28;20025;-68
2022/01/14 03:06:29;;;;;;;27.73;13.80;;;;;;;-142.75;100.00;80048.13;5051544;28;20036;-68
2022/01/14 03:08:58;;;;;;;23.83;13.40;;;;;;;-142.75;100.00;80061.91;5051333;28;20394;-68
2022/01/14 03:11:30;;;;;;;24.50;13.10;;;;;;;-142.75;100.00;80050.09;5051383;28;20040;-68
2022/01/14 03:13:57;;;;;;;27.10;13.07;;;;;;;-142.75;100.00;80050.09;5051550;28;20033;-68
2022/01/14 03:16:23;;;;;;;26.43;13.17;;;;;;;-142.75;100.00;80059.94;5051188;28;20111;-68
2022/01/14 03:18:52;;;;;;;26.40;13.10;;;;;;;-142.75;100.00;80067.84;5051080;28;20051;-67
2022/01/14 03:21:26;;;;;;;26.43;13.53;;;;;;;-142.75;100.00;80056.00;5051024;28;20544;-68
2022/01/14 03:24:02;;;;;;;19.27;12.37;;;;;;;-142.75;100.00;80063.88;5033406;28;20124;-68
2022/01/14 03:26:28;;;;;;;29.65;13.23;;;;;;;-142.75;100.00;80069.81;5051235;28;20028;-68
2022/01/14 03:28:54;;;;;;;21.52;12.95;;;;;;;-142.75;100.00;80059.94;5050820;28;20033;-68
2022/01/14 03:31:19;;;;;;;22.80;13.02;;;;;;;-142.75;100.00;80052.06;5032986;28;20017;-68
2022/01/14 03:33:44;;;;;;;27.08;12.57;;;;;;;-142.75;100.00;80056.00;5051722;28;20028;-68
2022/01/14 03:36:11;;;;;;;18.42;12.32;;;;;;;-142.75;100.00;80048.13;5051090;28;20052;-68
2022/01/14 03:38:36;;;;;;;;;;;;;;;-142.75;100.00;80040.25;5051064;28;20032;-68
2022/01/14 03:41:02;;;;;;;21.70;12.27;;;;;;;-142.75;100.00;80032.38;5050953;28;19916;-68
2022/01/14 03:43:28;;;;;;;22.93;12.27;;;;;;;-142.75;100.00;80036.31;5050591;28;20057;-68
2022/01/14 03:45:54;;;;;;;23.63;12.90;;;;;;;-142.75;100.00;80038.28;5050591;28;20451;-69
2022/01/14 03:48:20;;;;;;;20.02;12.55;;;;;;;-142.75;100.00;80034.34;5049866;28;20020;-68
2022/01/14 03:50:45;;;;;;;28.42;13.32;;;;;;;-142.75;100.00;80042.22;5050289;28;20036;-68
2022/01/14 03:53:11;;;;;;;39.55;14.25;;;;;;;-142.75;100.00;80054.03;5050730;28;20108;-68
2022/01/14 03:55:40;;;;;;;;;;;;;;;-142.75;100.00;80052.06;5050814;28;20029;-68
2022/01/14 03:58:09;;;;;;;31.63;13.23;;;;;;;-142.75;100.00;80052.06;5050447;28;19912;-68
2022/01/14 04:00:36;;;;;;;26.40;13.17;;;;;;;-142.75;100.00;80054.03;5050362;28;20033;-68
2022/01/14 04:03:01;;;;;;;31.93;14.10;;;;;;;-142.75;100.00;80048.13;5050805;28;20056;-68
2022/01/14 04:05:27;;;;;;;23.90;14.25;;;;;;;-142.75;100.00;80032.38;5032657;28;20510;-68
2022/01/14 04:07:52;;;;;;;24.48;13.63;;;;;;;-142.75;100.00;80020.53;5050036;28;20397;-67
2022/01/14 04:10:18;;;;;;;22.98;13.98;;;;;;;-142.75;100.00;80024.50;5050280;28;20107;-68
2022/01/14 04:12:48;;;;;;;;;;;;;;;-142.75;100.00;80016.59;5033135;28;20020;-68
2022/01/14 04:17:59;;;;;;;28.67;14.30;;;;;;;-142.75;100.00;80010.69;5050460;28;20124;-68
2022/01/14 04:20:25;;;;;;;;;;;;;;;-142.75;100.00;80000.84;5050477;28;20055;-68
2022/01/14 04:22:51;;;;;;;24.93;14.00;;;;;;;-142.75;100.00;79981.16;5032110;28;19916;-68
2022/01/14 04:25:16;;;;;;;38.08;13.95;;;;;;;-142.75;100.00;79989.03;5049977;28;20092;-68
2022/01/14 04:27:42;;;;;;;35.05;13.50;;;;;;;-142.75;100.00;79987.06;5032421;28;20577;-68
2022/01/14 04:30:08;;;;;;;23.95;14.07;;;;;;;-142.75;100.00;79973.25;5031775;28;20414;-68
2022/01/14 04:32:33;;;;;;;34.97;14.90;;;;;;;-142.75;100.00;79981.16;5049948;28;20024;-67
2022/01/14 04:34:58;;;;;;;29.83;16.00;;;;;;;-142.75;100.00;79971.28;5050422;28;20078;-68
2022/01/14 04:37:24;;;;;;;31.23;15.00;;;;;;;-142.75;100.00;79977.19;5050182;28;20278;-68
2022/01/14 04:39:49;;;;;;;40.00;14.90;;;;;;;-142.75;100.00;79973.25;5031599;28;20367;-68
2022/01/14 04:42:15;;;;;;;59.90;14.97;;;;;;;-142.75;100.00;79981.16;5049834;28;20280;-67
2022/01/14 04:44:40;;;;;;;75.65;15.27;;;;;;;-142.75;100.00;79987.06;5049900;28;20039;-67
2022/01/14 04:47:18;;;;;;;53.30;12.60;;;;;;;-142.75;100.00;79998.88;5049865;28;20078;-68
2022/01/14 04:49:43;;;;;;;68.07;14.13;;;;;;;-142.75;100.00;80016.59;5049398;28;20028;-67
2022/01/14 04:52:09;;;;;;;24.02;13.55;;;;;;;-142.75;100.00;80022.50;5037394;22;20049;-66
2022/01/14 04:54:35;;;;;;;72.25;14.35;;;;;;;-142.75;100.00;80028.44;4979465;28;20045;-67
2022/01/14 04:57:01;;;;;;;51.17;13.60;;;;;;;-142.75;100.00;80052.06;4989206;28;20027;-67
2022/01/14 04:59:27;;;;;;;49.83;15.30;;;;;;;-142.75;100.00;80044.19;4991742;28;20026;-67
2022/01/14 05:01:52;;;;;;;54.72;15.43;;;;;;;-142.75;100.00;80044.19;4994309;28;20030;-67
2022/01/14 05:04:17;;;;;;;66.18;15.13;;;;;;;-142.75;100.00;80038.28;4995174;28;20023;-67
2022/01/14 05:06:46;;;;;;;34.55;15.35;;;;;;;-142.75;100.00;80040.25;4977169;28;20014;-66
2022/01/14 05:09:22;;;;;;;46.47;16.23;;;;;;;-142.75;100.00;80046.16;4994510;28;20076;-66
2022/01/14 05:11:54;;;;;;;30.43;11.70;;;;;;;-142.75;100.00;80040.25;4994496;28;20026;-67
2022/01/14 05:14:19;;;;;;;75.60;15.47;;;;;;;-142.75;100.00;80040.25;4977079;28;20288;-67
2022/01/14 05:16:45;;;;;;;30.38;15.30;;;;;;;-142.75;100.00;80016.59;4994445;28;20030;-67
2022/01/14 05:19:11;;;;;;;37.17;15.10;;;;;;;-142.75;100.00;80014.63;4994003;28;20480;-67
2022/01/14 05:21:36;;;;;;;28.75;14.43;;;;;;;-142.75;100.00;80012.66;4994316;28;20076;-67
2022/01/14 05:24:01;;;;;;;29.58;15.60;;;;;;;-142.75;100.00;80004.78;4994333;28;20387;-67
2022/01/14 05:26:27;;;;;;;29.80;15.25;;;;;;;-142.75;100.00;80000.84;4994324;28;20030;-67
2022/01/14 05:28:52;;;;;;;54.40;14.57;;;;;;;-142.75;100.00;79996.91;4993873;28;20084;-66
2022/01/14 05:31:17;;;;;;;59.53;14.73;;;;;;;-142.75;100.00;80002.81;4994510;28;20651;-66
2022/01/14 05:33:46;;;;;;;29.17;14.43;;;;;;;-142.75;100.00;79996.91;4994797;28;20269;-66
2022/01/14 05:36:11;;;;;;;31.97;15.17;;;;;;;-142.75;100.00;79991.00;4994113;28;20036;-66
2022/01/14 05:38:37;;;;;;;31.40;14.55;;;;;;;-142.75;100.00;79981.16;4993836;28;20018;-66
2022/01/14 05:41:02;;;;;;;25.98;14.20;;;;;;;-142.75;100.00;79971.28;4994347;28;20073;-67
2022/01/14 05:43:27;;;;;;;29.08;13.40;;;;;;;-142.75;100.00;79975.22;4976535;28;20038;-67
2022/01/14 05:45:52;;;;;;;24.42;14.07;;;;;;;-142.75;100.00;79971.28;4993121;28;20026;-66
2022/01/14 05:48:18;;;;;;;27.88;14.38;;;;;;;-142.75;100.00;79981.16;4993151;28;20038;-67
2022/01/14 05:50:43;;;;;;;20.05;12.48;;;;;;;-142.75;100.00;79965.38;4993627;28;20026;-66
2022/01/14 05:53:08;;;;;;;24.47;13.40;;;;;;;-142.75;100.00;79975.22;4993753;28;20030;-66
2022/01/14 05:55:34;;;;;;;34.03;12.65;;;;;;;-142.75;100.00;79973.25;4976245;28;20380;-67
2022/01/14 05:57:59;;;;;;;38.22;12.73;;;;;;;-142.75;100.00;79985.09;4993175;28;20030;-67
2022/01/14 06:00:24;;;;;;;21.33;12.53;;;;;;;-142.75;100.00;79991.00;4993838;28;20041;-67
2022/01/14 06:02:51;;;;;;;35.65;12.98;;;;;;;-142.75;100.00;79989.03;4975906;28;20039;-67
2022/01/14 06:05:17;;;;;;;23.00;12.07;;;;;;;-142.75;100.00;80000.84;4993956;28;20113;-67
2022/01/14 06:07:43;;;;;;;43.70;12.67;;;;;;;-142.75;100.00;80010.69;4993574;28;20030;-66
2022/01/14 06:10:09;;;;;;;33.97;11.80;;;;;;;-142.75;100.00;80026.47;4992518;28;20026;-66
2022/01/14 06:12:34;;;;;;;;;;;;;;;-142.75;100.00;80028.44;4993719;28;20030;-66
2022/01/14 06:15:00;;;;;;;45.50;12.17;;;;;;;-142.75;100.00;80030.41;4993317;28;19975;-67
2022/01/14 06:17:26;;;;;;;25.73;12.32;;;;;;;-142.75;100.00;80032.38;4993524;28;20038;-67
2022/01/14 06:19:51;;;;;;;49.30;12.90;;;;;;;-142.75;100.00;80042.22;4975597;28;20031;-66
2022/01/14 06:22:17;;;;;;;72.03;13.35;;;;;;;-142.75;100.00;80056.00;4993142;28;20101;-67
2022/01/14 06:24:42;;;;;;;80.63;12.88;;;;;;;-142.75;100.00;80067.84;4975682;28;20027;-67
2022/01/14 06:27:07;;;;;;;45.57;12.17;;;;;;;-142.75;100.00;80071.78;4993331;28;20026;-66
2022/01/14 06:29:33;;;;;;;41.60;12.60;;;;;;;-142.75;100.00;80067.84;4975377;28;20473;-66
2022/01/14 06:31:58;;;;;;;24.25;12.45;;;;;;;-142.75;100.00;80069.81;4975785;28;20498;-67
2022/01/14 06:34:24;;;;;;;23.10;12.83;;;;;;;-142.75;100.00;80071.78;4993618;28;20033;-67
2022/01/14 06:36:49;;;;;;;48.63;12.82;;;;;;;-142.75;100.00;80063.88;4992924;28;20293;-66
2022/01/14 06:39:14;;;;;;;52.72;12.65;;;;;;;-142.75;100.00;80073.75;4975080;28;20093;-66
2022/01/14 06:41:40;;;;;;;42.08;12.35;;;;;;;-142.75;100.00;80087.53;4992615;28;20053;-67
2022/01/14 06:44:06;;;;;;;44.85;13.40;;;;;;;-142.75;100.00;80091.47;4992757;28;20033;-66
2022/01/14 06:46:31;;;;;;;28.98;13.32;;;;;;;-142.75;100.00;80087.53;4992354;28;20049;-66
2022/01/14 06:48:57;;;;;;;35.92;13.27;;;;;;;-142.75;100.00;80099.34;4991524;28;20104;-67
2022/01/14 06:51:22;;;;;;;25.80;13.82;;;;;;;-142.75;100.00;80099.34;4992181;28;20058;-66
2022/01/14 06:53:48;;;;;;;28.27;14.07;;;;;;;-142.75;100.00;80083.59;4975254;28;20030;-66
2022/01/14 06:56:14;;;;;;;33.72;13.93;;;;;;;-142.75;100.00;80091.47;4991404;28;20026;-66
2022/01/14 06:58:41;;;;;;;24.10;14.13;;;;;;;-142.75;100.00;80091.47;4992188;28;20030;-66
2022/01/14 07:01:06;;;;;;;;;;;;;;;-142.75;100.00;80085.56;4992706;28;20030;-66
2022/01/14 07:03:32;;;;;;;29.07;12.97;;;;;;;-142.75;100.00;80075.72;4992928;28;19918;-67
2022/01/14 07:05:57;;;;;;;21.73;13.75;;;;;;;-142.75;100.00;80063.88;4991854;28;20105;-67
2022/01/14 07:08:22;;;;;;;26.90;13.97;;;;;;;-142.75;100.00;80056.00;4991371;28;20030;-66
2022/01/14 07:10:47;;;;;;;28.27;12.60;;;;;;;-142.75;100.00;80063.88;4991746;28;20345;-66
2022/01/14 07:13:13;;;;;;;21.48;13.18;;;;;;;-142.75;100.00;80050.09;4974415;28;20416;-67
2022/01/14 07:15:38;;;;;;;23.80;12.43;;;;;;;-142.75;100.00;80040.25;4992275;28;20037;-66
2022/01/14 07:18:03;;;;;;;21.27;12.18;;;;;;;-142.75;100.00;80036.31;4991930;28;20129;-65
2022/01/14 07:20:29;;;;;;;26.15;12.23;;;;;;;-142.75;100.00;80046.16;4974998;28;20484;-65
2022/01/14 07:22:54;;;;;;;27.88;11.85;;;;;;;-142.75;100.00;80032.38;4991955;28;20018;-65
2022/01/14 07:25:20;;;;;;;24.33;11.73;;;;;;;-142.75;100.00;80028.44;4975252;28;20034;-65
2022/01/14 07:27:46;;;;;;;42.63;12.05;;;;;;;-142.75;100.00;80038.28;4992707;28;20503;-65
2022/01/14 07:30:14;;;;;;;33.58;12.68;;;;;;;-142.75;100.00;80036.31;4992350;28;20061;-65
2022/01/14 07:32:40;;;;;;;37.13;11.53;;;;;;;-142.75;100.00;80040.25;4992430;28;20023;-65
2022/01/14 07:35:05;;;;;;;30.92;12.65;;;;;;;-142.75;100.00;80065.84;4992797;28;20024;-64
2022/01/14 07:37:31;;;;;;;19.60;11.57;;;;;;;-142.75;100.00;80052.06;4992577;28;20057;-66
2022/01/14 07:39:56;;;;;;;45.17;12.45;;;;;;;-142.75;100.00;80054.03;4991320;28;20069;-65
2022/01/14 07:42:21;;;;;;;28.05;11.63;;;;;;;-142.75;100.00;80052.06;4991207;28;20431;-66
2022/01/14 07:44:47;;;;;;;33.47;11.52;;;;;;;-142.75;100.00;80042.22;4991673;28;20083;-66
2022/01/14 07:47:12;;;;;;;16.10;11.20;;;;;;;-142.75;100.00;80050.09;4991436;28;20022;-65
2022/01/14 07:49:37;;;;;;;23.75;12.38;;;;;;;-142.75;100.00;80048.13;4991269;28;20053;-65
2022/01/14 07:52:03;;;;;;;25.10;11.20;;;;;;;-142.75;100.00;80044.19;4990965;28;20022;-66
2022/01/14 07:54:29;;;;;;;;;;;;;;;-142.75;100.00;80052.06;4973901;28;20037;-65
2022/01/14 07:56:57;;;;;;;55.03;11.43;;;;;;;-142.75;100.00;80071.78;4991330;28;19922;-65
2022/01/14 07:59:24;;;;;;;22.60;12.13;;;;;;;-142.75;100.00;80063.88;4991001;28;20030;-66
2022/01/14 08:01:51;;;;;;;21.17;11.53;;;;;;;-142.75;100.00;80048.13;4990921;28;20034;-66
2022/01/14 08:04:18;;;;;;;40.00;12.73;;;;;;;-142.75;100.00;80040.25;4991211;28;20026;-66
2022/01/14 08:06:47;;;;;;;23.93;13.03;;;;;;;-142.75;100.00;80050.09;4986335;28;20488;-66
2022/01/14 08:09:14;;;;;;;25.40;11.87;;;;;;;-142.75;100.00;80044.19;4990441;28;20033;-65
2022/01/14 08:11:39;;;;;;;38.80;12.13;;;;;;;-142.75;100.00;80048.13;4991120;28;20026;-65
2022/01/14 08:14:04;;;;;;;25.20;12.88;;;;;;;-142.75;100.00;80050.09;4991041;28;20145;-65
2022/01/14 08:16:30;;;;;;;31.88;12.23;;;;;;;-142.75;100.00;80044.19;4991125;28;20050;-65
2022/01/14 08:18:55;;;;;;;32.90;12.85;;;;;;;-142.75;100.00;80048.13;4990790;28;20030;-65
2022/01/14 08:21:20;;;;;;;50.42;13.90;;;;;;;-142.75;100.00;80048.13;4990741;28;20018;-65
2022/01/14 08:23:46;;;;;;;21.58;12.40;;;;;;;-142.75;100.00;80030.41;4973408;28;20034;-65
2022/01/14 08:26:11;;;;;;;35.63;13.63;;;;;;;-142.75;100.00;80048.13;4990683;28;20053;-66
2022/01/14 08:28:37;;;;;;;24.42;12.98;;;;;;;-142.75;100.00;80028.44;4990431;28;20027;-66
2022/01/14 08:31:02;;;;;;;24.08;12.27;;;;;;;-142.75;100.00;80040.25;4973311;28;20415;-66
2022/01/14 08:33:28;;;;;;;41.53;13.95;;;;;;;-142.75;100.00;80028.44;4973465;28;20109;-66
2022/01/14 08:35:53;;;;;;;40.17;14.68;;;;;;;-142.75;100.00;80044.19;4990880;28;20030;-65
2022/01/14 08:38:18;;;;;;;30.17;14.90;;;;;;;-142.75;100.00;80050.09;4973320;28;20030;-65
2022/01/14 08:40:44;;;;;;;27.23;14.05;;;;;;;-142.75;100.00;80044.19;4991367;28;20113;-65
2022/01/14 08:43:10;;;;;;;31.52;14.50;;;;;;;-142.75;100.00;80038.28;4991353;28;20030;-66
2022/01/14 08:45:35;;;;;;;30.70;15.90;;;;;;;-142.75;100.00;80020.53;4991634;28;20030;-66
2022/01/14 08:48:01;;;;;;;26.27;15.20;;;;;;;-142.75;100.00;80010.69;4973738;28;20289;-66
2022/01/14 08:50:35;;;;;;;31.83;15.40;;;;;;;-142.75;100.00;80004.78;4986723;28;20050;-66
2022/01/14 08:53:02;;;;;;;27.87;14.60;;;;;;;-142.75;100.00;79996.91;4988960;28;20101;-67
2022/01/14 08:55:28;;;;;;;25.23;14.10;;;;;;;-142.75;100.00;79992.97;4991160;28;20050;-66
2022/01/14 08:57:54;;;;;;;30.17;15.38;;;;;;;-142.75;100.00;79983.13;4990963;28;20058;-66
2022/01/14 09:00:21;;;;;;;28.48;14.65;;;;;;;-142.75;100.00;79973.25;4991242;28;20026;-66
2022/01/14 09:02:46;;;;;;;28.07;14.40;;;;;;;-142.75;100.00;79961.44;4987620;28;20029;-66
2022/01/14 09:05:11;;;;;;;26.90;14.00;;;;;;;-142.75;100.00;79949.63;4990693;28;20403;-66
2022/01/14 09:07:38;;;;;;;32.97;15.50;;;;;;;-142.75;100.00;79951.59;4990084;28;20061;-69
2022/01/14 09:10:03;;;;;;;;;;;;;;;-142.75;100.00;79933.84;4989377;28;20034;-67
2022/01/14 09:12:28;;;;;;;26.93;14.10;;;;;;;-142.75;100.00;79925.97;4989319;28;19988;-66
2022/01/14 09:14:54;;;;;;;32.55;16.38;;;;;;;-142.75;100.00;79916.13;4987696;28;20022;-66
2022/01/14 09:17:19;;;;;;;29.48;14.43;;;;;;;-142.75;100.00;79912.19;4990676;28;20508;-67
2022/01/14 09:19:45;;;;;;;28.57;14.70;;;;;;;-142.75;100.00;79904.31;4972569;28;20145;-67
2022/01/14 09:22:15;;;;;;;30.58;15.07;;;;;;;-142.75;100.00;79908.25;4990130;28;20771;-67
2022/01/14 09:24:41;;;;;;;34.07;15.43;;;;;;;-142.75;100.00;79908.25;4972959;28;20085;-67
2022/01/14 09:27:07;;;;;;;;;;;;;;;-142.75;100.00;79908.25;4990913;28;20488;-67
2022/01/14 09:29:32;;;;;;;32.83;16.27;;;;;;;-142.75;100.00;79898.41;4972690;28;19922;-67
2022/01/14 09:31:57;;;;;;;27.93;15.63;;;;;;;-142.75;100.00;79878.69;4990258;28;20026;-67
2022/01/14 09:34:23;;;;;;;29.83;16.25;;;;;;;-142.75;100.00;79876.72;4990409;28;20022;-67
2022/01/14 09:36:48;;;;;;;31.40;16.00;;;;;;;-142.75;100.00;79874.75;4989992;28;20023;-67
2022/01/14 09:39:13;;;;;;;33.20;16.53;;;;;;;-142.75;100.00;79868.84;4990155;28;20301;-67
2022/01/14 09:41:38;;;;;;;31.83;16.47;;;;;;;-142.75;100.00;79888.53;4990937;28;20333;-67
2022/01/14 09:44:05;;;;;;;28.08;15.45;;;;;;;-142.75;100.00;79886.56;4973171;28;20034;-67
2022/01/14 09:46:31;;;;;;;37.10;17.13;;;;;;;-142.75;100.00;79890.50;4989289;28;20384;-67
2022/01/14 09:48:56;;;;;;;28.58;15.65;;;;;;;-142.75;100.00;79882.63;4993439;28;20041;-67
2022/01/14 09:51:22;;;;;;;32.67;15.32;;;;;;;-142.75;100.00;79866.88;4976121;28;20057;-67
2022/01/14 09:53:48;;;;;;;29.20;16.17;;;;;;;-142.75;100.00;79878.69;4993618;28;20033;-67
2022/01/14 09:56:17;;;;;;;27.90;15.55;;;;;;;-142.75;100.00;79890.50;4976300;28;20026;-67
2022/01/14 09:58:47;;;;;;;27.07;15.63;;;;;;;-142.75;100.00;79888.53;4993414;28;20034;-66
2022/01/14 10:01:22;;;;;;;26.17;16.27;;;;;;;-142.75;100.00;79886.56;4976255;28;20117;-67
2022/01/14 10:03:54;;;;;;;30.97;16.20;;;;;;;-142.75;100.00;79894.47;4993639;28;20118;-68
2022/01/14 10:06:38;;;;;;;32.87;14.93;;;;;;;-142.75;100.00;79896.44;4976229;28;20022;-67
2022/01/14 10:09:08;;;;;;;32.47;15.90;;;;;;;-142.75;100.00;79906.28;4993355;28;20034;-67
2022/01/14 10:11:35;;;;;;;27.10;15.70;;;;;;;-142.75;100.00;79912.19;4993876;28;20033;-67
2022/01/14 10:14:07;;;;;;;28.93;16.10;;;;;;;-142.75;100.00;79916.13;4993157;28;20480;-67
2022/01/14 10:16:33;;;;;;;27.67;15.77;;;;;;;-142.75;100.00;79910.22;4993173;28;20160;-67
2022/01/14 10:18:58;;;;;;;25.52;15.80;;;;;;;-142.75;100.00;79904.31;4993073;28;20046;-68
2022/01/14 10:21:31;;;;;;;28.08;15.48;;;;;;;-142.75;100.00;79892.50;4993355;28;20114;-67
2022/01/14 10:23:56;;;;;;;27.47;16.83;;;;;;;-142.75;100.00;79880.66;4993177;28;20737;-67
2022/01/14 10:26:22;;;;;;;27.25;15.70;;;;;;;-142.75;100.00;79878.69;4993150;28;20106;-67
2022/01/14 10:29:01;;;;;;;32.05;16.65;;;;;;;-142.75;100.00;79860.97;4975341;28;20042;-67
2022/01/14 10:31:35;;;;;;;28.53;16.73;;;;;;;-142.75;100.00;79870.81;4993000;28;20034;-67
2022/01/14 10:34:13;;;;;;;25.73;15.23;;;;;;;-142.75;100.00;79862.94;4975385;28;20049;-67
2022/01/14 10:36:41;;;;;;;26.17;16.17;;;;;;;-142.75;100.00;79855.06;4992362;28;20389;-66
2022/01/14 10:39:27;;;;;;;27.77;15.80;;;;;;;-142.75;100.00;79860.97;4992498;28;20484;-66
2022/01/14 10:41:55;;;;;;;25.73;15.60;;;;;;;-142.75;100.00;79866.88;4993262;28;20034;-67
2022/01/14 10:44:30;;;;;;;29.17;15.43;;;;;;;-142.75;100.00;79876.72;4992994;28;20025;-67
2022/01/14 10:47:16;;;;;;;29.43;16.43;;;;;;;-142.75;100.00;79870.81;4992656;28;20061;-67
2022/01/14 10:49:43;;;;;;;27.97;16.63;;;;;;;-142.75;100.00;79876.72;4992512;28;20029;-67
2022/01/14 10:52:11;;;;;;;27.73;16.17;;;;;;;-142.75;100.00;79859.00;5018705;22;20756;-69
2022/01/14 10:54:49;;;;;;;26.33;17.03;;;;;;;-142.75;100.00;79859.00;4993685;28;20499;-69
2022/01/14 10:57:23;;;;;;;28.73;17.67;;;;;;;-142.75;100.00;79860.97;5029832;28;20026;-69
2022/01/14 10:59:52;;;;;;;25.57;16.53;;;;;;;-142.75;100.00;79843.22;5021348;28;20026;-69
2022/01/14 11:02:53;;;;;;;28.47;17.20;;;;;;;-142.75;100.00;79851.13;4995655;28;20072;-68
2022/01/14 11:05:21;;;;;;;25.90;16.43;;;;;;;-142.75;100.00;79835.34;4937431;29;20031;-68
2022/01/14 11:07:48;;;;;;;26.17;16.57;;;;;;;-142.75;100.00;79815.66;4985220;28;20037;-68
2022/01/14 11:10:13;;;;;;;25.30;15.80;;;;;;;-142.75;100.00;79805.81;5013015;28;20076;-69
2022/01/14 11:12:40;;;;;;;27.30;17.33;;;;;;;-142.75;100.00;79788.06;5012083;28;20423;-69
2022/01/14 11:15:07;;;;;;;23.30;16.40;;;;;;;-142.75;100.00;79795.94;5032080;28;20108;-70
2022/01/14 11:17:36;;;;;;;25.57;16.03;;;;;;;-142.75;100.00;79799.91;5032132;28;20025;-71